createdAt,value
2023-05-20T00:02:20.439Z,15.20
2023-05-20T00:04:47.602Z,15.10
2023-05-20T00:07:14.821Z,15.10
2023-05-20T00:09:41.894Z,15.10
2023-05-20T00:12:08.753Z,14.90
2023-05-20T00:14:35.920Z,14.90
2023-05-20T00:17:03.548Z,14.90
2023-05-20T00:19:30.970Z,15.10
2023-05-20T00:21:58.375Z,15.10
2023-05-20T00:24:25.659Z,15.00
2023-05-20T00:26:52.613Z,15.10
2023-05-20T00:29:21.678Z,15.10
2023-05-20T00:31:48.788Z,15.20
2023-05-20T00:34:15.888Z,15.10
2023-05-20T00:36:43.120Z,15.10
2023-05-20T00:39:10.111Z,15.10
2023-05-20T00:41:37.176Z,15.10
2023-05-20T00:44:04.275Z,15.00
2023-05-20T00:46:31.694Z,14.90
2023-05-20T00:48:59.016Z,14.80
2023-05-20T00:51:26.272Z,14.80
2023-05-20T00:53:54.183Z,14.70
2023-05-20T00:56:22.280Z,14.70
2023-05-20T00:58:54.177Z,14.70
2023-05-20T01:01:21.195Z,14.60
2023-05-20T01:03:49.008Z,14.50
2023-05-20T01:06:16.281Z,14.60
2023-05-20T01:08:43.386Z,14.50
2023-05-20T01:11:31.508Z,14.20
2023-05-20T01:14:04.065Z,14.20
2023-05-20T01:16:34.140Z,14.20
2023-05-20T01:19:04.065Z,14.10
2023-05-20T01:21:32.479Z,14.30
2023-05-20T01:24:01.807Z,14.20
2023-05-20T01:26:28.882Z,14.20
2023-05-20T01:28:57.989Z,14.10
2023-05-20T01:31:29.844Z,14.10
2023-05-20T01:33:58.498Z,14.20
2023-05-20T01:36:27.715Z,14.20
2023-05-20T01:38:56.175Z,14.10
2023-05-20T01:41:25.494Z,14.10
2023-05-20T01:43:52.694Z,14.10
2023-05-20T01:46:19.741Z,14.10
2023-05-20T01:48:46.706Z,14.20
2023-05-20T01:51:13.551Z,14.30
2023-05-20T01:53:40.410Z,14.40
2023-05-20T01:56:07.495Z,14.30
2023-05-20T01:58:34.641Z,14.20
2023-05-20T02:01:02.151Z,14.20
2023-05-20T02:03:29.303Z,14.20
2023-05-20T02:05:56.470Z,14.40
2023-05-20T02:08:23.812Z,14.50
2023-05-20T02:10:51.701Z,14.50
2023-05-20T02:13:18.653Z,14.50
2023-05-20T02:15:45.847Z,14.40
2023-05-20T02:18:14.228Z,14.50
2023-05-20T02:20:42.700Z,14.50
2023-05-20T02:23:09.734Z,14.50
2023-05-20T02:25:36.831Z,14.50
2023-05-20T02:28:06.060Z,14.50
2023-05-20T02:30:33.076Z,14.60
2023-05-20T02:33:00.156Z,14.50
2023-05-20T02:35:27.073Z,14.40
2023-05-20T02:37:54.055Z,14.40
2023-05-20T02:40:21.249Z,14.40
2023-05-20T02:42:48.340Z,14.50
2023-05-20T02:45:15.599Z,14.50
2023-05-20T02:47:43.498Z,14.40
2023-05-20T02:50:11.371Z,14.50
2023-05-20T02:52:40.314Z,14.40
2023-05-20T02:55:07.976Z,14.40
2023-05-20T02:57:38.228Z,14.20
2023-05-20T03:00:13.317Z,14.10
2023-05-20T03:02:40.430Z,14.00
2023-05-20T03:05:08.085Z,13.90
2023-05-20T03:07:36.583Z,13.90
2023-05-20T03:10:04.978Z,13.80
2023-05-20T03:12:32.140Z,13.90
2023-05-20T03:15:00.425Z,13.90
2023-05-20T03:17:27.542Z,13.90
2023-05-20T03:20:00.309Z,13.80
2023-05-20T03:22:27.384Z,13.70
2023-05-20T03:24:54.362Z,13.80
2023-05-20T03:27:21.588Z,13.80
2023-05-20T03:29:48.611Z,13.70
2023-05-20T03:32:15.594Z,13.70
2023-05-20T03:34:42.572Z,13.60
2023-05-20T03:37:09.464Z,13.50
2023-05-20T03:39:36.464Z,13.60
2023-05-20T03:42:03.477Z,13.80
2023-05-20T03:44:30.706Z,13.70
2023-05-20T03:46:57.813Z,13.80
2023-05-20T03:49:24.800Z,13.90
2023-05-20T03:51:51.717Z,13.80
2023-05-20T03:54:18.736Z,13.80
2023-05-20T03:56:47.080Z,13.70
2023-05-20T03:59:13.987Z,13.80
2023-05-20T04:01:40.926Z,13.90
2023-05-20T04:04:07.833Z,13.80
2023-05-20T04:06:34.824Z,13.90
2023-05-20T04:09:01.781Z,13.90
2023-05-20T04:11:28.684Z,13.90
2023-05-20T04:13:55.774Z,13.90
2023-05-20T04:16:22.759Z,13.90
2023-05-20T04:18:50.808Z,13.70
2023-05-20T04:21:19.165Z,13.80
2023-05-20T04:23:46.297Z,13.80
2023-05-20T04:26:13.592Z,13.90
2023-05-20T04:28:42.173Z,13.80
2023-05-20T04:31:10.705Z,13.80
2023-05-20T04:33:38.752Z,13.90
2023-05-20T04:36:07.929Z,13.90
2023-05-20T04:38:36.159Z,13.90
2023-05-20T04:41:03.186Z,13.90
2023-05-20T04:43:31.485Z,13.90
2023-05-20T04:45:59.870Z,14.10
2023-05-20T04:48:27.319Z,14.10
2023-05-20T04:50:54.591Z,14.20
2023-05-20T04:53:24.785Z,14.10
2023-05-20T04:55:56.979Z,14.10
2023-05-20T04:58:25.181Z,14.10
2023-05-20T05:00:53.383Z,14.00
2023-05-20T05:03:20.548Z,14.10
2023-05-20T05:05:47.764Z,14.10
2023-05-20T05:08:15.260Z,14.10
2023-05-20T05:10:42.347Z,14.20
2023-05-20T05:13:09.424Z,14.10
2023-05-20T05:15:36.911Z,14.30
2023-05-20T05:18:04.376Z,14.30
2023-05-20T05:20:31.470Z,14.30
2023-05-20T05:22:58.386Z,14.30
2023-05-20T05:25:25.879Z,14.30
2023-05-20T05:27:53.186Z,14.40
2023-05-20T05:30:22.057Z,14.40
2023-05-20T05:32:49.145Z,14.40
2023-05-20T05:35:16.125Z,14.50
2023-05-20T05:37:43.013Z,14.50
2023-05-20T05:40:11.077Z,14.60
2023-05-20T05:42:38.137Z,14.60
2023-05-20T05:45:05.545Z,14.60
2023-05-20T05:47:33.015Z,14.70
2023-05-20T05:50:00.167Z,14.70
2023-05-20T05:52:28.024Z,14.60
2023-05-20T05:54:55.691Z,14.70
2023-05-20T05:57:22.769Z,14.70
2023-05-20T05:59:50.987Z,14.70
2023-05-20T06:02:18.798Z,15.00
2023-05-20T06:04:46.158Z,15.00
2023-05-20T06:07:13.236Z,15.20
2023-05-20T06:09:40.599Z,15.00
2023-05-20T06:12:07.953Z,15.00
2023-05-20T06:14:35.062Z,15.10
2023-05-20T06:17:02.998Z,15.20
2023-05-20T06:19:30.143Z,15.30
2023-05-20T06:21:58.846Z,15.40
2023-05-20T06:24:26.690Z,15.60
2023-05-20T06:26:53.638Z,15.50
2023-05-20T06:29:20.886Z,15.60
2023-05-20T06:31:47.859Z,15.60
2023-05-20T06:34:14.954Z,15.70
2023-05-20T06:36:41.923Z,15.70
2023-05-20T06:39:12.581Z,15.80
2023-05-20T06:41:40.281Z,15.90
2023-05-20T06:44:07.906Z,15.90
2023-05-20T06:46:35.327Z,15.90
2023-05-20T06:49:03.247Z,16.10
2023-05-20T06:51:30.399Z,16.10
2023-05-20T06:53:57.386Z,16.20
2023-05-20T06:56:24.338Z,16.20
2023-05-20T06:58:52.885Z,16.30
2023-05-20T07:01:20.238Z,16.30
2023-05-20T07:03:47.649Z,16.50
2023-05-20T07:06:14.747Z,16.60
2023-05-20T07:08:41.819Z,16.60
2023-05-20T07:11:09.156Z,16.80
2023-05-20T07:13:36.348Z,16.80
2023-05-20T07:16:04.421Z,16.90
2023-05-20T07:18:31.681Z,16.90
2023-05-20T07:20:58.603Z,17.00
2023-05-20T07:23:25.774Z,16.90
2023-05-20T07:25:54.166Z,16.90
2023-05-20T07:28:21.600Z,17.00
2023-05-20T07:30:50.574Z,17.10
2023-05-20T07:33:18.408Z,17.10
2023-05-20T07:35:45.818Z,17.50
2023-05-20T07:38:13.580Z,17.60
2023-05-20T07:40:41.515Z,17.60
2023-05-20T07:43:09.551Z,17.80
2023-05-20T07:45:38.170Z,18.00
2023-05-20T07:48:05.903Z,17.90
2023-05-20T07:50:34.303Z,18.10
2023-05-20T07:53:01.473Z,18.00
2023-05-20T07:55:28.717Z,18.10
2023-05-20T07:57:56.384Z,18.10
2023-05-20T08:00:24.348Z,18.30
2023-05-20T08:02:51.740Z,18.40
2023-05-20T08:05:19.161Z,18.60
2023-05-20T08:07:46.649Z,18.70
2023-05-20T08:10:13.730Z,18.80
2023-05-20T08:12:41.294Z,18.90
2023-05-20T08:15:09.130Z,19.00
2023-05-20T08:17:36.280Z,19.10
2023-05-20T08:20:03.334Z,19.30
2023-05-20T08:22:30.260Z,19.60
2023-05-20T08:24:57.138Z,19.80
2023-05-20T08:27:24.118Z,20.00
2023-05-20T08:29:51.139Z,20.30
2023-05-20T08:32:18.363Z,20.10
2023-05-20T08:34:45.250Z,20.30
2023-05-20T08:37:12.384Z,20.40
2023-05-20T08:39:39.535Z,20.50
2023-05-20T08:42:08.146Z,20.50
2023-05-20T08:44:36.125Z,20.70
2023-05-20T08:47:05.342Z,20.80
2023-05-20T08:49:32.514Z,21.10
2023-05-20T08:52:01.655Z,21.50
2023-05-20T08:54:43.775Z,21.60
2023-05-20T08:57:14.137Z,21.50
2023-05-20T08:59:46.952Z,21.70
2023-05-20T09:02:14.504Z,22.00
2023-05-20T09:04:42.185Z,22.20
2023-05-20T09:07:09.310Z,22.40
2023-05-20T09:09:36.781Z,22.30
2023-05-20T09:12:04.001Z,22.30
2023-05-20T09:14:32.057Z,22.30
2023-05-20T09:16:59.477Z,22.30
2023-05-20T09:19:26.857Z,22.50
2023-05-20T09:21:55.221Z,22.50
2023-05-20T09:24:26.787Z,22.50
2023-05-20T09:26:54.307Z,22.50
2023-05-20T09:29:21.899Z,22.70
2023-05-20T09:31:50.348Z,23.00
2023-05-20T09:34:17.898Z,23.20
2023-05-20T09:36:45.383Z,23.20
2023-05-20T09:39:20.964Z,23.40
2023-05-20T09:42:28.965Z,23.70
2023-05-20T09:44:59.021Z,24.00
2023-05-20T09:47:27.189Z,24.00
2023-05-20T09:49:54.657Z,23.80
2023-05-20T09:52:22.444Z,23.90
2023-05-20T09:54:51.410Z,24.00
2023-05-20T09:57:18.603Z,24.00
2023-05-20T09:59:47.281Z,24.00
2023-05-20T10:02:14.773Z,24.10
2023-05-20T10:04:45.361Z,23.90
2023-05-20T10:07:46.576Z,24.10
2023-05-20T10:10:36.696Z,24.20
2023-05-20T10:13:21.458Z,24.30
2023-05-20T10:15:51.392Z,24.70
2023-05-20T10:18:45.710Z,24.70
2023-05-20T10:21:24.749Z,24.90
2023-05-20T10:23:52.593Z,25.00
2023-05-20T10:26:19.895Z,24.80
2023-05-20T10:28:47.601Z,24.10
2023-05-20T10:31:21.162Z,23.90
2023-05-20T10:33:49.142Z,24.20
2023-05-20T10:36:31.539Z,24.60
2023-05-20T10:38:59.557Z,24.60
2023-05-20T10:41:30.761Z,24.30
2023-05-20T10:44:05.032Z,24.30
2023-05-20T10:46:46.329Z,24.40
2023-05-20T10:49:22.290Z,24.60
2023-05-20T10:51:51.694Z,25.00
2023-05-20T10:54:18.900Z,25.00
2023-05-20T10:56:53.775Z,24.90
2023-05-20T10:59:22.199Z,24.50
2023-05-20T11:01:49.678Z,24.40
2023-05-20T11:04:19.980Z,24.70
2023-05-20T11:06:54.214Z,24.80
2023-05-20T11:09:22.031Z,25.10
2023-05-20T11:11:50.887Z,25.50
2023-05-20T11:14:20.122Z,25.90
2023-05-20T11:16:51.185Z,26.20
2023-05-20T11:19:19.249Z,26.00
2023-05-20T11:21:47.335Z,25.70
2023-05-20T11:24:14.532Z,25.60
2023-05-20T11:26:41.693Z,25.70
2023-05-20T11:29:08.751Z,25.80
2023-05-20T11:31:39.238Z,25.50
2023-05-20T11:34:06.489Z,25.50
2023-05-20T11:36:33.535Z,25.60
2023-05-20T11:39:01.118Z,25.90
2023-05-20T11:41:29.299Z,26.20
2023-05-20T11:44:00.095Z,26.60
2023-05-20T11:46:28.227Z,26.70
2023-05-20T11:48:56.451Z,27.00
2023-05-20T11:51:30.597Z,27.30
2023-05-20T11:54:02.692Z,27.50
2023-05-20T11:56:34.900Z,28.00
2023-05-20T11:59:03.083Z,27.70
2023-05-20T12:01:55.142Z,27.30
2023-05-20T12:04:22.485Z,27.30
2023-05-20T12:06:49.590Z,27.20
2023-05-20T12:09:16.537Z,27.50
2023-05-20T12:11:45.113Z,27.50
2023-05-20T12:14:12.502Z,27.50
2023-05-20T12:16:40.358Z,27.40
2023-05-20T12:19:08.853Z,26.70
2023-05-20T12:21:35.876Z,26.50
2023-05-20T12:24:05.437Z,26.20
2023-05-20T12:26:33.173Z,26.00
2023-05-20T12:29:00.050Z,26.00
2023-05-20T12:31:27.855Z,26.20
2023-05-20T12:33:54.937Z,26.40
2023-05-20T12:36:22.024Z,26.50
2023-05-20T12:38:49.803Z,26.80
2023-05-20T12:41:16.814Z,27.00
2023-05-20T12:43:43.816Z,27.60
2023-05-20T12:46:11.535Z,27.80
2023-05-20T12:48:39.145Z,28.00
2023-05-20T12:51:07.421Z,27.60
2023-05-20T12:53:34.451Z,27.60
2023-05-20T12:56:01.437Z,27.80
2023-05-20T12:58:28.818Z,27.60
2023-05-20T13:00:57.056Z,27.40
2023-05-20T13:03:23.974Z,27.60
2023-05-20T13:05:51.194Z,27.60
2023-05-20T13:08:18.082Z,27.90
2023-05-20T13:10:45.124Z,27.80
2023-05-20T13:13:13.860Z,28.00
2023-05-20T13:15:42.451Z,28.30
2023-05-20T13:18:10.412Z,28.80
2023-05-20T13:20:37.510Z,28.70
2023-05-20T13:23:04.888Z,29.20
2023-05-20T13:25:32.173Z,29.10
2023-05-20T13:27:59.109Z,28.70
2023-05-20T13:30:26.807Z,28.80
2023-05-20T13:32:53.727Z,29.10
2023-05-20T13:35:21.165Z,28.90
2023-05-20T13:37:48.220Z,28.90
2023-05-20T13:40:15.492Z,28.80
2023-05-20T13:42:42.705Z,29.00
2023-05-20T13:45:10.076Z,29.20
2023-05-20T13:47:37.247Z,29.30
2023-05-20T13:50:04.650Z,29.30
2023-05-20T13:52:31.656Z,29.50
2023-05-20T13:54:58.780Z,29.70
2023-05-20T13:57:25.751Z,30.10
2023-05-20T13:59:52.753Z,30.10
2023-05-20T14:02:19.692Z,30.30
2023-05-20T14:04:47.196Z,29.80
2023-05-20T14:07:14.369Z,29.80
2023-05-20T14:09:41.292Z,29.60
2023-05-20T14:12:08.281Z,28.90
2023-05-20T14:14:35.410Z,28.50
2023-05-20T14:17:02.293Z,28.50
2023-05-20T14:19:30.245Z,28.30
2023-05-20T14:21:59.930Z,28.40
2023-05-20T14:24:27.265Z,28.40
2023-05-20T14:26:54.261Z,28.30
2023-05-20T14:29:21.296Z,28.80
2023-05-20T14:31:48.461Z,28.50
2023-05-20T14:34:15.794Z,28.20
2023-05-20T14:36:44.711Z,28.10
2023-05-20T14:39:11.801Z,27.80
2023-05-20T14:41:38.664Z,27.30
2023-05-20T14:44:05.842Z,27.10
2023-05-20T14:46:32.893Z,27.00
2023-05-20T14:49:00.547Z,26.70
2023-05-20T14:51:27.758Z,27.00
2023-05-20T14:53:54.829Z,27.30
2023-05-20T14:56:22.769Z,27.50
2023-05-20T14:58:49.896Z,28.10
2023-05-20T15:01:17.619Z,28.30
2023-05-20T15:03:44.578Z,28.50
2023-05-20T15:06:11.544Z,28.50
2023-05-20T15:08:38.388Z,28.30
2023-05-20T15:11:05.486Z,28.20
2023-05-20T15:13:32.634Z,27.50
2023-05-20T15:15:59.766Z,27.00
2023-05-20T15:18:27.224Z,27.00
2023-05-20T15:20:54.164Z,26.60
2023-05-20T15:23:21.528Z,26.40
2023-05-20T15:25:50.361Z,25.90
2023-05-20T15:28:19.826Z,26.20
2023-05-20T15:30:51.601Z,26.00
2023-05-20T15:33:22.524Z,25.70
2023-05-20T15:35:49.734Z,25.40
2023-05-20T15:38:17.610Z,25.30
2023-05-20T15:40:44.598Z,25.40
2023-05-20T15:43:11.684Z,25.40
2023-05-20T15:45:38.640Z,25.30
2023-05-20T15:48:06.584Z,25.10
2023-05-20T15:50:35.319Z,25.20
2023-05-20T15:53:02.630Z,25.20
2023-05-20T15:55:30.470Z,25.20
2023-05-20T15:57:59.191Z,25.30
2023-05-20T16:00:26.101Z,25.70
2023-05-20T16:02:55.029Z,25.90
2023-05-20T16:05:25.839Z,25.70
2023-05-20T16:07:53.535Z,25.60
2023-05-20T16:10:20.650Z,25.60
2023-05-20T16:12:47.642Z,25.40
2023-05-20T16:15:14.898Z,25.30
2023-05-20T16:17:41.917Z,25.60
2023-05-20T16:20:09.362Z,25.90
2023-05-20T16:22:36.873Z,26.00
2023-05-20T16:25:04.419Z,26.30
2023-05-20T16:27:32.504Z,26.50
2023-05-20T16:29:59.387Z,26.30
2023-05-20T16:32:27.218Z,26.10
2023-05-20T16:34:54.982Z,25.70
2023-05-20T16:37:22.051Z,25.30
2023-05-20T16:39:49.196Z,25.20
2023-05-20T16:42:16.379Z,24.80
2023-05-20T16:44:43.237Z,24.90
2023-05-20T16:47:10.996Z,24.50
2023-05-20T16:49:38.107Z,25.00
2023-05-20T16:52:05.874Z,24.90
2023-05-20T16:54:36.438Z,24.80
2023-05-20T16:57:04.650Z,25.00
2023-05-20T16:59:36.405Z,24.80
2023-05-20T17:02:03.557Z,24.90
2023-05-20T17:04:30.800Z,25.10
2023-05-20T17:06:57.915Z,24.70
2023-05-20T17:09:24.877Z,24.50
2023-05-20T17:11:52.990Z,24.30
2023-05-20T17:14:20.220Z,24.10
2023-05-20T17:16:47.317Z,24.10
2023-05-20T17:19:14.432Z,24.00
2023-05-20T17:21:41.382Z,24.00
2023-05-20T17:24:08.284Z,23.90
2023-05-20T17:26:35.540Z,23.80
2023-05-20T17:29:02.433Z,23.70
2023-05-20T17:31:29.612Z,23.40
2023-05-20T17:33:56.646Z,23.40
2023-05-20T17:36:23.815Z,23.40
2023-05-20T17:38:52.382Z,23.40
2023-05-20T17:41:19.652Z,23.40
2023-05-20T17:43:46.995Z,23.30
2023-05-20T17:46:14.948Z,23.30
2023-05-20T17:48:41.909Z,23.30
2023-05-20T17:51:08.888Z,23.20
2023-05-20T17:53:36.000Z,23.10
2023-05-20T17:56:03.335Z,23.10
2023-05-20T17:58:31.572Z,23.00
2023-05-20T18:00:58.821Z,22.90
2023-05-20T18:03:27.916Z,22.90
2023-05-20T18:05:58.329Z,22.80
2023-05-20T18:08:28.507Z,22.50
2023-05-20T18:10:55.751Z,22.60
2023-05-20T18:13:22.572Z,22.70
2023-05-20T18:15:50.250Z,22.70
2023-05-20T18:18:17.117Z,22.70
2023-05-20T18:20:44.017Z,22.70
2023-05-20T18:23:11.078Z,22.70
2023-05-20T18:25:39.475Z,22.80
2023-05-20T18:28:08.918Z,22.90
2023-05-20T18:30:36.275Z,22.90
2023-05-20T18:33:03.545Z,22.90
2023-05-20T18:35:30.870Z,22.80
2023-05-20T18:37:58.525Z,22.50
2023-05-20T18:40:26.151Z,22.30
2023-05-20T18:42:53.459Z,22.20
2023-05-20T18:45:21.919Z,22.20
2023-05-20T18:47:48.932Z,22.10
2023-05-20T18:50:16.317Z,22.10
2023-05-20T18:52:43.586Z,22.10
2023-05-20T18:55:11.675Z,21.90
2023-05-20T18:57:38.759Z,21.80
2023-05-20T19:00:12.762Z,21.80
2023-05-20T19:02:40.741Z,21.80
2023-05-20T19:05:09.874Z,21.60
2023-05-20T19:07:37.649Z,21.60
2023-05-20T19:10:05.485Z,21.60
2023-05-20T19:12:32.804Z,21.50
2023-05-20T19:15:00.382Z,21.30
2023-05-20T19:17:27.560Z,21.20
2023-05-20T19:19:54.732Z,21.10
2023-05-20T19:22:21.789Z,21.20
2023-05-20T19:24:48.758Z,21.30
2023-05-20T19:27:15.757Z,21.30
2023-05-20T19:29:43.193Z,21.10
2023-05-20T19:32:10.044Z,21.00
2023-05-20T19:34:37.066Z,21.00
2023-05-20T19:37:04.784Z,21.00
2023-05-20T19:39:31.675Z,20.80
2023-05-20T19:41:58.698Z,20.90
2023-05-20T19:44:25.799Z,20.70
2023-05-20T19:46:53.994Z,20.70
2023-05-20T19:49:21.118Z,20.60
2023-05-20T19:51:48.387Z,20.60
2023-05-20T19:54:15.540Z,20.70
2023-05-20T19:56:42.593Z,20.80
2023-05-20T19:59:09.557Z,20.70
2023-05-20T20:01:37.829Z,20.60
2023-05-20T20:04:05.033Z,20.60
2023-05-20T20:06:32.558Z,20.60
2023-05-20T20:08:59.623Z,20.60
2023-05-20T20:11:27.359Z,20.40
2023-05-20T20:13:54.437Z,20.40
2023-05-20T20:16:21.524Z,20.30
2023-05-20T20:18:48.980Z,20.10
2023-05-20T20:21:15.948Z,20.20
2023-05-20T20:23:43.527Z,20.10
2023-05-20T20:26:13.597Z,20.10
2023-05-20T20:28:40.642Z,20.00
2023-05-20T20:31:07.567Z,19.90
2023-05-20T20:33:34.460Z,19.90
2023-05-20T20:36:02.559Z,19.90
2023-05-20T20:38:29.765Z,19.90
2023-05-20T20:40:59.489Z,19.90
2023-05-20T20:43:28.860Z,19.70
2023-05-20T20:45:56.654Z,19.60
2023-05-20T20:48:27.405Z,19.50
2023-05-20T20:50:54.903Z,19.50
2023-05-20T20:53:21.911Z,19.60
2023-05-20T20:55:51.189Z,19.60
2023-05-20T20:58:18.224Z,19.30
2023-05-20T21:00:45.817Z,19.40
2023-05-20T21:03:13.488Z,19.40
2023-05-20T21:05:40.782Z,19.30
2023-05-20T21:08:08.596Z,19.40
2023-05-20T21:10:36.033Z,19.30
2023-05-20T21:13:02.893Z,19.20
2023-05-20T21:15:29.837Z,19.20
2023-05-20T21:17:58.556Z,19.20
2023-05-20T21:20:25.683Z,19.10
2023-05-20T21:22:52.732Z,19.10
2023-05-20T21:25:19.898Z,19.30
2023-05-20T21:27:47.176Z,19.20
2023-05-20T21:30:15.913Z,19.20
2023-05-20T21:32:43.153Z,19.10
2023-05-20T21:35:11.159Z,19.00
2023-05-20T21:37:38.055Z,19.00
2023-05-20T21:40:05.725Z,19.00
2023-05-20T21:42:32.782Z,18.90
2023-05-20T21:44:59.692Z,19.00
2023-05-20T21:47:26.639Z,18.90
2023-05-20T21:49:53.682Z,18.90
2023-05-20T21:52:20.826Z,18.80
2023-05-20T21:54:47.639Z,18.90
2023-05-20T21:57:15.451Z,18.70
2023-05-20T21:59:43.205Z,18.70
2023-05-20T22:02:10.514Z,18.70
2023-05-20T22:04:37.562Z,18.50
2023-05-20T22:07:04.899Z,18.40
2023-05-20T22:09:35.437Z,18.40
2023-05-20T22:12:03.743Z,18.30
2023-05-20T22:14:30.791Z,18.20
2023-05-20T22:16:58.630Z,18.10
2023-05-20T22:19:26.930Z,18.10
2023-05-20T22:21:53.878Z,17.90
2023-05-20T22:24:20.713Z,17.90
2023-05-20T22:26:47.685Z,18.00
2023-05-20T22:29:14.611Z,18.00
2023-05-20T22:31:41.638Z,17.90
2023-05-20T22:34:09.771Z,17.90
2023-05-20T22:36:37.493Z,17.90
2023-05-20T22:39:04.940Z,18.00
2023-05-20T22:41:32.216Z,18.00
2023-05-20T22:43:59.184Z,17.90
2023-05-20T22:46:26.310Z,17.80
2023-05-20T22:48:54.140Z,17.80
2023-05-20T22:51:21.960Z,17.70
2023-05-20T22:53:49.397Z,17.80
2023-05-20T22:56:17.102Z,17.70
2023-05-20T22:58:45.863Z,17.50
2023-05-20T23:01:13.385Z,17.40
2023-05-20T23:03:40.696Z,17.40
2023-05-20T23:06:07.968Z,17.40
2023-05-20T23:08:34.905Z,17.30
2023-05-20T23:11:01.996Z,17.30
2023-05-20T23:13:29.034Z,17.20
2023-05-20T23:15:56.184Z,17.30
2023-05-20T23:18:24.906Z,17.30
2023-05-20T23:20:51.971Z,17.40
2023-05-20T23:23:27.674Z,17.40
2023-05-20T23:25:58.059Z,17.40
2023-05-20T23:28:25.515Z,17.40
2023-05-20T23:30:52.445Z,17.40
2023-05-20T23:33:24.451Z,17.40
2023-05-20T23:35:52.891Z,17.20
2023-05-20T23:38:19.963Z,17.10
2023-05-20T23:40:47.439Z,17.00
2023-05-20T23:43:14.532Z,17.20
2023-05-20T23:45:41.413Z,17.30
2023-05-20T23:48:13.209Z,17.20
2023-05-20T23:50:40.751Z,17.20
2023-05-20T23:53:07.895Z,17.10
2023-05-20T23:55:35.468Z,17.00
2023-05-20T23:58:02.950Z,16.80
